Weather

Ora Tempo Temperatura Umidità Vento Precipitazioni
12:00 scattered clouds 17.8° 58% 3.19 km/h 0 mm
15:00 scattered clouds 17.1° 57% 2.77 km/h 0 mm
18:00 scattered clouds 14.7° 68% 1.44 km/h 0 mm
21:00 overcast clouds 14.1° 67% 0.89 km/h 0 mm
Ora Tempo Temperatura Umidità Vento Precipitazioni
00:00 overcast clouds 12.7° 68% 2.17 km/h 0 mm
03:00 broken clouds 11.8° 73% 2.84 km/h 0 mm
06:00 broken clouds 13.0° 70% 2.56 km/h 0 mm
09:00 broken clouds 16.0° 62% 5.57 km/h 0 mm
12:00 overcast clouds 17.3° 61% 6.23 km/h 0 mm
15:00 overcast clouds 17.0° 61% 6.18 km/h 0 mm
18:00 overcast clouds 15.0° 69% 3.39 km/h 0 mm
21:00 overcast clouds 14.7° 66% 3.07 km/h 0 mm
Ora Tempo Temperatura Umidità Vento Precipitazioni
00:00 overcast clouds 13.7° 62% 3.01 km/h 0 mm
03:00 overcast clouds 14.0° 51% 3.21 km/h 0 mm
06:00 overcast clouds 14.1° 57% 3.2 km/h 0 mm
09:00 light rain 14.3° 81% 3.37 km/h 0.74 mm
12:00 light rain 16.8° 75% 3.42 km/h 0.36 mm
15:00 overcast clouds 16.5° 84% 4.88 km/h 0 mm
18:00 light rain 15.6° 90% 4.96 km/h 1.27 mm
21:00 light rain 15.0° 91% 3.71 km/h 0.38 mm
Ora Tempo Temperatura Umidità Vento Precipitazioni
00:00 light rain 14.2° 92% 2.03 km/h 0.68 mm
03:00 light rain 14.3° 93% 2.59 km/h 0.74 mm
06:00 light rain 15.7° 89% 6.75 km/h 0.16 mm
09:00 light rain 16.3° 87% 8.31 km/h 0.40 mm
12:00 light rain 16.5° 84% 7.72 km/h 1.27 mm
15:00 light rain 16.8° 82% 4.78 km/h 0.23 mm
18:00 scattered clouds 15.6° 88% 1.7 km/h 0 mm
21:00 clear sky 14.6° 89% 2.46 km/h 0 mm
Ora Tempo Temperatura Umidità Vento Precipitazioni
00:00 clear sky 14.0° 90% 2.1 km/h 0 mm
03:00 broken clouds 13.5° 91% 2.87 km/h 0 mm
06:00 broken clouds 15.0° 87% 2.98 km/h 0 mm
09:00 overcast clouds 16.8° 85% 5.78 km/h 0 mm
12:00 broken clouds 17.7° 82% 6.84 km/h 0 mm
15:00 clear sky 17.4° 84% 4.87 km/h 0 mm
18:00 clear sky 16.3° 89% 3.51 km/h 0 mm
21:00 clear sky 15.0° 90% 2.54 km/h 0 mm
Ora Tempo Temperatura Umidità Vento Precipitazioni
00:00 scattered clouds 14.5° 89% 2.29 km/h 0 mm
03:00 broken clouds 14.0° 87% 3.02 km/h 0 mm
06:00 broken clouds 15.2° 79% 2.25 km/h 0 mm
09:00 overcast clouds 18.2° 71% 1.13 km/h 0 mm
Sunday 25 April
Temp. max: 17.8°
Temp. min: 14.1°
Ora Tempo Temperatura Umidità Vento Precipitazioni
12:00 scattered clouds 17.8° 58% 3.19 km/h 0 mm
15:00 scattered clouds 17.1° 57% 2.77 km/h 0 mm
18:00 scattered clouds 14.7° 68% 1.44 km/h 0 mm
21:00 overcast clouds 14.1° 67% 0.89 km/h 0 mm
Monday 26 April
Temp. max: 17.3°
Temp. min: 11.8°
Ora Tempo Temperatura Umidità Vento Precipitazioni
00:00 overcast clouds 12.7° 68% 2.17 km/h 0 mm
03:00 broken clouds 11.8° 73% 2.84 km/h 0 mm
06:00 broken clouds 13.0° 70% 2.56 km/h 0 mm
09:00 broken clouds 16.0° 62% 5.57 km/h 0 mm
12:00 overcast clouds 17.3° 61% 6.23 km/h 0 mm
15:00 overcast clouds 17.0° 61% 6.18 km/h 0 mm
18:00 overcast clouds 15.0° 69% 3.39 km/h 0 mm
21:00 overcast clouds 14.7° 66% 3.07 km/h 0 mm
Tuesday 27 April
Temp. max: 16.8°
Temp. min: 13.7°
Ora Tempo Temperatura Umidità Vento Precipitazioni
00:00 overcast clouds 13.7° 62% 3.01 km/h 0 mm
03:00 overcast clouds 14.0° 51% 3.21 km/h 0 mm
06:00 overcast clouds 14.1° 57% 3.2 km/h 0 mm
09:00 light rain 14.3° 81% 3.37 km/h 0.74 mm
12:00 light rain 16.8° 75% 3.42 km/h 0.36 mm
15:00 overcast clouds 16.5° 84% 4.88 km/h 0 mm
18:00 light rain 15.6° 90% 4.96 km/h 1.27 mm
21:00 light rain 15.0° 91% 3.71 km/h 0.38 mm
Wednesday 28 April
Temp. max: 16.8°
Temp. min: 14.2°
Ora Tempo Temperatura Umidità Vento Precipitazioni
00:00 light rain 14.2° 92% 2.03 km/h 0.68 mm
03:00 light rain 14.3° 93% 2.59 km/h 0.74 mm
06:00 light rain 15.7° 89% 6.75 km/h 0.16 mm
09:00 light rain 16.3° 87% 8.31 km/h 0.40 mm
12:00 light rain 16.5° 84% 7.72 km/h 1.27 mm
15:00 light rain 16.8° 82% 4.78 km/h 0.23 mm
18:00 scattered clouds 15.6° 88% 1.7 km/h 0 mm
21:00 clear sky 14.6° 89% 2.46 km/h 0 mm
Thursday 29 April
Temp. max: 17.7°
Temp. min: 13.5°
Ora Tempo Temperatura Umidità Vento Precipitazioni
00:00 clear sky 14.0° 90% 2.1 km/h 0 mm
03:00 broken clouds 13.5° 91% 2.87 km/h 0 mm
06:00 broken clouds 15.0° 87% 2.98 km/h 0 mm
09:00 overcast clouds 16.8° 85% 5.78 km/h 0 mm
12:00 broken clouds 17.7° 82% 6.84 km/h 0 mm
15:00 clear sky 17.4° 84% 4.87 km/h 0 mm
18:00 clear sky 16.3° 89% 3.51 km/h 0 mm
21:00 clear sky 15.0° 90% 2.54 km/h 0 mm
Friday 30 April
Temp. max: 18.2°
Temp. min: 14.0°
Ora Tempo Temperatura Umidità Vento Precipitazioni
00:00 scattered clouds 14.5° 89% 2.29 km/h 0 mm
03:00 broken clouds 14.0° 87% 3.02 km/h 0 mm
06:00 broken clouds 15.2° 79% 2.25 km/h 0 mm
09:00 overcast clouds 18.2° 71% 1.13 km/h 0 mm

Live Cam

VUOI RICEVERE PIÚ INFORMAZIONI SUI NOSTRI SERVIZI?

Usa la form di contatti sul sito o contattaci telefonicamente